createdAt,value
2019-05-06T00:01:01.510Z,6.70
2019-05-06T00:03:27.289Z,9.27
2019-05-06T00:05:54.349Z,9.70
2019-05-06T00:08:20.255Z,8.83
2019-05-06T00:10:46.056Z,9.07
2019-05-06T00:13:13.938Z,11.23
2019-05-06T00:15:39.520Z,8.33
2019-05-06T00:18:05.326Z,9.20
2019-05-06T00:20:31.820Z,8.87
2019-05-06T00:22:59.597Z,13.27
2019-05-06T00:25:27.284Z,9.47
2019-05-06T00:28:11.123Z,7.70
2019-05-06T00:30:38.846Z,9.47
2019-05-06T00:33:04.627Z,9.00
2019-05-06T00:35:30.500Z,9.93
2019-05-06T00:37:56.322Z,9.47
2019-05-06T00:40:26.487Z,8.10
2019-05-06T00:42:54.310Z,9.87
2019-05-06T00:45:20.076Z,6.53
2019-05-06T00:47:45.858Z,6.67
2019-05-06T00:50:14.226Z,8.67
2019-05-06T00:52:39.935Z,11.17
2019-05-06T00:55:05.907Z,7.67
2019-05-06T00:57:44.098Z,9.37
2019-05-06T01:00:13.501Z,8.47
2019-05-06T01:02:39.273Z,10.83
2019-05-06T01:05:05.151Z,10.87
2019-05-06T01:07:30.945Z,6.90
2019-05-06T01:09:56.724Z,6.57
2019-05-06T01:12:23.966Z,8.17
2019-05-06T01:14:51.804Z,7.00
2019-05-06T01:17:17.605Z,7.87
2019-05-06T01:19:45.789Z,6.73
2019-05-06T01:22:11.680Z,7.47
2019-05-06T01:24:37.461Z,7.60
2019-05-06T01:27:04.027Z,6.80
2019-05-06T01:29:29.943Z,11.87
2019-05-06T01:31:55.755Z,5.90
2019-05-06T01:34:21.529Z,9.43
2019-05-06T01:36:47.308Z,8.07
2019-05-06T01:39:24.543Z,7.53
2019-05-06T01:41:54.801Z,6.57
2019-05-06T01:44:20.595Z,7.03
2019-05-06T01:46:46.388Z,8.23
2019-05-06T01:49:13.818Z,9.97
2019-05-06T01:51:39.671Z,6.50
2019-05-06T01:54:05.460Z,10.87
2019-05-06T01:56:33.480Z,9.37
2019-05-06T01:58:58.942Z,8.23
2019-05-06T02:01:25.189Z,7.20
2019-05-06T02:03:51.024Z,10.30
2019-05-06T02:06:16.803Z,8.90
2019-05-06T02:08:44.531Z,10.20
2019-05-06T02:11:10.308Z,9.53
2019-05-06T02:13:36.105Z,11.23
2019-05-06T02:16:03.881Z,13.43
2019-05-06T02:18:29.588Z,10.00
2019-05-06T02:20:57.269Z,10.97
2019-05-06T02:23:36.475Z,11.90
2019-05-06T02:26:02.281Z,8.27
2019-05-06T02:28:28.047Z,11.50
2019-05-06T02:30:58.295Z,9.53
2019-05-06T02:33:31.905Z,13.00
2019-05-06T02:35:59.596Z,13.50
2019-05-06T02:38:35.705Z,10.77
2019-05-06T02:40:54.965Z,11.87
2019-05-06T02:43:23.234Z,8.77
2019-05-06T02:45:48.452Z,8.37
2019-05-06T02:48:16.143Z,12.57
2019-05-06T02:50:46.384Z,12.27
2019-05-06T02:53:13.340Z,10.63
2019-05-06T02:55:39.262Z,13.00
2019-05-06T02:58:05.042Z,16.47
2019-05-06T03:00:33.014Z,9.67
2019-05-06T03:02:58.535Z,9.53
2019-05-06T03:05:24.331Z,12.93
2019-05-06T03:07:50.121Z,15.13
2019-05-06T03:10:17.127Z,10.07
2019-05-06T03:12:43.246Z,12.73
2019-05-06T03:15:09.396Z,12.53
2019-05-06T03:17:35.182Z,14.10
2019-05-06T03:20:04.239Z,13.67
2019-05-06T03:22:49.994Z,16.73
2019-05-06T03:25:17.690Z,12.93
2019-05-06T03:27:47.018Z,13.53
2019-05-06T03:30:16.450Z,13.63
2019-05-06T03:33:13.849Z,17.00
2019-05-06T03:35:25.040Z,15.07
2019-05-06T03:37:34.934Z,13.00
2019-05-06T03:40:02.962Z,16.50
2019-05-06T03:42:28.413Z,17.17
2019-05-06T03:44:56.102Z,15.50
2019-05-06T03:47:23.808Z,17.17
2019-05-06T03:49:54.390Z,17.80
2019-05-06T03:52:19.596Z,14.50
2019-05-06T03:54:45.502Z,18.13
2019-05-06T03:57:13.833Z,14.13
2019-05-06T03:59:39.783Z,14.53
2019-05-06T04:02:05.977Z,18.03
2019-05-06T04:04:33.256Z,16.13
2019-05-06T04:06:59.171Z,16.27
2019-05-06T04:09:24.962Z,19.47
2019-05-06T04:11:53.915Z,10.77
2019-05-06T04:14:19.190Z,16.37
2019-05-06T04:16:47.052Z,14.43
2019-05-06T04:19:17.598Z,14.97
2019-05-06T04:21:45.383Z,22.00
2019-05-06T04:24:13.383Z,14.80
2019-05-06T04:26:46.070Z,14.10
2019-05-06T04:29:09.287Z,17.50
2019-05-06T04:31:35.057Z,14.70
2019-05-06T04:34:09.778Z,17.00
2019-05-06T04:36:29.246Z,11.63
2019-05-06T04:38:55.771Z,13.67
2019-05-06T04:41:26.164Z,14.40
2019-05-06T04:43:49.368Z,16.37
2019-05-06T04:46:16.911Z,15.43
2019-05-06T04:48:43.454Z,16.27
2019-05-06T04:51:09.242Z,16.37
2019-05-06T04:53:35.035Z,17.50
2019-05-06T04:56:03.921Z,12.20
2019-05-06T04:58:28.513Z,16.00
2019-05-06T05:00:54.697Z,16.27
2019-05-06T05:03:22.778Z,14.57
2019-05-06T05:05:48.282Z,16.17
2019-05-06T05:08:14.087Z,19.53
2019-05-06T05:10:43.206Z,11.33
2019-05-06T05:13:23.103Z,12.07
2019-05-06T05:16:08.692Z,12.87
2019-05-06T05:18:36.388Z,11.93
2019-05-06T05:21:02.507Z,12.37
2019-05-06T05:23:28.294Z,13.27
2019-05-06T05:25:54.068Z,13.87
2019-05-06T05:28:19.872Z,15.67
2019-05-06T05:30:45.763Z,12.23
2019-05-06T05:33:12.240Z,9.17
2019-05-06T05:35:38.449Z,11.27
2019-05-06T05:38:04.234Z,11.97
2019-05-06T05:40:32.075Z,12.63
2019-05-06T05:43:03.512Z,11.00
2019-05-06T05:45:29.312Z,12.33
2019-05-06T05:47:56.992Z,14.77
2019-05-06T05:50:24.985Z,12.37
2019-05-06T05:52:51.984Z,13.53
2019-05-06T05:55:17.883Z,13.00
2019-05-06T05:57:43.664Z,14.87
2019-05-06T06:00:09.757Z,12.27
2019-05-06T06:02:35.543Z,12.70
2019-05-06T06:05:02.509Z,11.73
2019-05-06T06:07:28.419Z,11.40
2019-05-06T06:09:58.916Z,13.27
2019-05-06T06:12:24.797Z,13.70
2019-05-06T06:14:56.330Z,9.97
2019-05-06T06:17:36.025Z,13.50
2019-05-06T06:20:22.607Z,10.97
2019-05-06T06:22:48.385Z,11.73
2019-05-06T06:25:14.380Z,8.67
2019-05-06T06:27:47.987Z,6.83
2019-05-06T06:30:13.907Z,6.87
2019-05-06T06:32:41.843Z,8.67
2019-05-06T06:35:15.428Z,6.03
2019-05-06T06:37:49.281Z,9.70
2019-05-06T06:40:17.184Z,8.73
2019-05-06T06:42:44.898Z,8.33
2019-05-06T06:45:12.284Z,9.30
2019-05-06T06:47:38.180Z,9.40
2019-05-06T06:50:04.159Z,10.23
2019-05-06T06:52:32.411Z,11.90
2019-05-06T06:54:57.740Z,8.00
2019-05-06T06:57:42.434Z,10.83
2019-05-06T07:00:12.360Z,11.93
2019-05-06T07:02:43.135Z,9.60
2019-05-06T07:05:24.832Z,9.70
2019-05-06T07:07:47.134Z,7.67
2019-05-06T07:10:29.201Z,7.87
2019-05-06T07:12:55.002Z,7.27
2019-05-06T07:15:22.216Z,9.60
2019-05-06T07:17:48.084Z,8.37
2019-05-06T07:20:15.768Z,7.83
2019-05-06T07:22:42.410Z,10.23
2019-05-06T07:25:08.579Z,11.77
2019-05-06T07:27:34.383Z,8.13
2019-05-06T07:30:02.827Z,9.80
2019-05-06T07:32:27.875Z,10.20
2019-05-06T07:34:53.659Z,9.73
2019-05-06T07:37:21.969Z,7.53
2019-05-06T07:39:47.328Z,9.60
2019-05-06T07:42:15.005Z,9.13
2019-05-06T07:44:42.717Z,9.43
2019-05-06T07:47:16.247Z,9.60
2019-05-06T07:49:43.242Z,9.80
2019-05-06T07:52:09.452Z,7.10
2019-05-06T07:54:35.520Z,11.43
2019-05-06T07:57:02.368Z,9.33
2019-05-06T07:59:28.389Z,12.10
2019-05-06T08:01:54.247Z,14.30
2019-05-06T08:04:23.041Z,11.77
2019-05-06T08:06:49.526Z,8.43
2019-05-06T08:09:17.337Z,8.17
2019-05-06T08:11:43.120Z,13.03
2019-05-06T08:14:08.924Z,8.33
2019-05-06T08:16:36.604Z,9.07
2019-05-06T08:19:02.827Z,8.97
2019-05-06T08:21:36.045Z,8.57
2019-05-06T08:24:02.765Z,8.07
2019-05-06T08:26:28.634Z,10.67
2019-05-06T08:28:54.428Z,6.77
2019-05-06T08:31:22.339Z,8.43
2019-05-06T08:33:48.401Z,6.43
2019-05-06T08:36:16.892Z,6.60
2019-05-06T08:38:53.661Z,8.37
2019-05-06T08:41:19.453Z,7.50
2019-05-06T08:43:45.282Z,10.77
2019-05-06T08:46:12.606Z,6.00
2019-05-06T08:48:38.865Z,8.90
2019-05-06T08:51:13.074Z,9.20
2019-05-06T08:53:42.450Z,6.13
2019-05-06T08:56:12.669Z,6.33
2019-05-06T08:58:44.826Z,7.03
2019-05-06T09:01:12.532Z,8.80
2019-05-06T09:03:38.413Z,5.50
2019-05-06T09:06:07.417Z,6.83
2019-05-06T09:08:32.501Z,8.83
2019-05-06T09:10:59.536Z,8.53
2019-05-06T09:13:25.317Z,8.67
2019-05-06T09:15:52.488Z,5.53
2019-05-06T09:18:18.406Z,5.93
2019-05-06T09:20:44.222Z,7.17
2019-05-06T09:23:12.287Z,5.07
2019-05-06T09:25:37.696Z,6.63
2019-05-06T09:28:05.386Z,6.97
2019-05-06T09:30:33.676Z,6.70
2019-05-06T09:32:59.458Z,7.13
2019-05-06T09:35:25.251Z,5.97
2019-05-06T09:37:53.261Z,4.40
2019-05-06T09:40:18.728Z,5.57
2019-05-06T09:42:44.512Z,7.27
2019-05-06T09:45:12.519Z,10.10
2019-05-06T09:47:48.835Z,7.03
2019-05-06T09:50:18.740Z,7.20
2019-05-06T09:52:44.542Z,7.17
2019-05-06T09:55:13.970Z,4.27
2019-05-06T09:58:03.530Z,4.70
2019-05-06T10:00:32.958Z,6.17
2019-05-06T10:02:58.910Z,7.20
2019-05-06T10:05:24.704Z,7.57
2019-05-06T10:07:52.378Z,4.63
2019-05-06T10:10:18.181Z,7.03
2019-05-06T10:12:44.032Z,6.87
2019-05-06T10:15:12.602Z,4.47
2019-05-06T10:17:38.017Z,5.20
2019-05-06T10:20:04.788Z,4.57
2019-05-06T10:22:32.692Z,7.43
2019-05-06T10:24:58.515Z,3.53
2019-05-06T10:27:24.310Z,8.60
2019-05-06T10:30:03.156Z,5.13
2019-05-06T10:32:33.106Z,3.97
2019-05-06T10:34:58.889Z,5.10
2019-05-06T10:37:33.521Z,4.23
2019-05-06T10:40:15.143Z,6.97
2019-05-06T10:42:47.791Z,5.37
2019-05-06T10:45:25.390Z,3.83
2019-05-06T10:47:51.204Z,4.37
2019-05-06T10:50:16.985Z,4.77
2019-05-06T10:53:02.898Z,4.77
2019-05-06T10:55:29.328Z,5.40
2019-05-06T10:57:55.124Z,3.57
2019-05-06T11:00:23.124Z,5.07
2019-05-06T11:03:07.212Z,5.93
2019-05-06T11:05:32.996Z,5.97
2019-05-06T11:07:58.787Z,3.60
2019-05-06T11:10:28.564Z,4.60
2019-05-06T11:12:52.430Z,5.70
2019-05-06T11:15:18.249Z,3.30
2019-05-06T11:17:44.053Z,4.33
2019-05-06T11:20:11.410Z,4.33
2019-05-06T11:22:37.736Z,8.57
2019-05-06T11:25:04.015Z,5.57
2019-05-06T11:27:32.650Z,5.87
2019-05-06T11:29:59.399Z,3.70
2019-05-06T11:32:27.076Z,6.00
2019-05-06T11:35:03.905Z,7.30
2019-05-06T11:37:47.049Z,8.57
2019-05-06T11:40:08.489Z,6.23
2019-05-06T11:42:35.946Z,5.80
2019-05-06T11:45:04.260Z,5.43
2019-05-06T11:47:32.335Z,9.10
2019-05-06T11:49:58.360Z,8.60
2019-05-06T11:52:24.752Z,3.73
2019-05-06T11:54:52.765Z,8.63
2019-05-06T11:57:18.227Z,5.70
2019-05-06T11:59:44.029Z,7.23
2019-05-06T12:02:14.602Z,3.53
2019-05-06T12:04:41.922Z,7.63
2019-05-06T12:07:11.059Z,7.10
2019-05-06T12:09:35.608Z,5.27
2019-05-06T12:12:03.324Z,8.40
2019-05-06T12:14:29.082Z,7.03
2019-05-06T12:16:55.288Z,10.00
2019-05-06T12:19:22.522Z,5.13
2019-05-06T12:21:51.098Z,5.80
2019-05-06T12:24:16.889Z,6.30
2019-05-06T12:26:43.003Z,7.37
2019-05-06T12:29:08.871Z,6.07
2019-05-06T12:31:34.748Z,14.30
2019-05-06T12:34:02.647Z,11.17
2019-05-06T12:36:28.317Z,9.13
2019-05-06T12:39:17.491Z,8.90
2019-05-06T12:41:43.713Z,5.73
2019-05-06T12:44:09.508Z,6.00
2019-05-06T12:46:46.081Z,6.00
2019-05-06T12:49:12.748Z,7.40
2019-05-06T12:51:38.695Z,13.30
2019-05-06T12:54:04.481Z,10.77
2019-05-06T12:56:30.477Z,7.63
2019-05-06T12:58:56.265Z,13.50
2019-05-06T13:01:22.063Z,5.87
2019-05-06T13:03:47.843Z,12.10
2019-05-06T13:06:13.671Z,7.13
2019-05-06T13:08:53.937Z,6.87
2019-05-06T13:11:07.123Z,7.60
2019-05-06T13:13:33.282Z,8.07
2019-05-06T13:15:59.115Z,9.30
2019-05-06T13:18:24.901Z,7.57
2019-05-06T13:20:52.230Z,7.13
2019-05-06T13:23:25.685Z,6.23
2019-05-06T13:25:52.596Z,7.40
2019-05-06T13:28:22.233Z,7.70
2019-05-06T13:30:47.885Z,8.30
2019-05-06T13:33:21.454Z,7.07
2019-05-06T13:35:47.238Z,7.20
2019-05-06T13:38:13.018Z,5.87
2019-05-06T13:40:52.874Z,12.87
2019-05-06T13:43:12.924Z,5.67
2019-05-06T13:45:43.292Z,8.97
2019-05-06T13:48:13.905Z,8.47
2019-05-06T13:50:41.947Z,3.83
2019-05-06T13:53:11.633Z,6.03
2019-05-06T13:55:35.527Z,8.77
2019-05-06T13:58:03.307Z,7.70
2019-05-06T14:00:29.676Z,6.70
2019-05-06T14:02:56.792Z,14.83
2019-05-06T14:05:22.577Z,5.67
2019-05-06T14:07:48.391Z,7.43
2019-05-06T14:10:14.457Z,8.17
2019-05-06T14:12:42.418Z,9.53
2019-05-06T14:15:08.250Z,4.20
2019-05-06T14:17:34.059Z,9.53
2019-05-06T14:19:59.839Z,7.87
2019-05-06T14:22:25.724Z,8.53
2019-05-06T14:24:53.448Z,8.20
2019-05-06T14:27:19.456Z,9.13
2019-05-06T14:30:04.486Z,9.80
2019-05-06T14:32:29.787Z,9.67
2019-05-06T14:34:55.563Z,6.67
2019-05-06T14:37:22.591Z,7.80
2019-05-06T14:39:58.146Z,9.47
2019-05-06T14:42:18.156Z,9.53
2019-05-06T14:44:43.946Z,7.70
2019-05-06T14:47:12.624Z,9.87
2019-05-06T14:49:38.547Z,5.93
2019-05-06T14:52:08.355Z,6.50
2019-05-06T14:54:36.042Z,9.90
2019-05-06T14:57:06.480Z,7.27
2019-05-06T14:59:32.910Z,7.73
2019-05-06T15:01:58.768Z,8.70
2019-05-06T15:04:24.569Z,5.77
2019-05-06T15:06:50.357Z,7.93
2019-05-06T15:09:16.434Z,5.97
2019-05-06T15:11:43.418Z,7.93
2019-05-06T15:14:09.662Z,6.53
2019-05-06T15:16:35.437Z,6.13
2019-05-06T15:19:03.979Z,5.23
2019-05-06T15:21:37.465Z,5.13
2019-05-06T15:23:57.058Z,4.13
2019-05-06T15:26:23.002Z,5.90
2019-05-06T15:28:49.145Z,4.10
2019-05-06T15:31:20.190Z,5.17
2019-05-06T15:33:56.768Z,4.53
2019-05-06T15:36:30.024Z,3.17
2019-05-06T15:38:56.139Z,4.53
2019-05-06T15:41:22.384Z,5.23
2019-05-06T15:43:48.532Z,6.17
2019-05-06T15:46:14.339Z,5.87
2019-05-06T15:48:42.018Z,6.00
2019-05-06T15:51:08.163Z,3.30
2019-05-06T15:53:33.946Z,7.53
2019-05-06T15:55:59.921Z,4.87
2019-05-06T15:58:25.719Z,5.53
2019-05-06T16:00:53.103Z,5.17
2019-05-06T16:03:19.120Z,6.33
2019-05-06T16:05:45.124Z,8.93
2019-05-06T16:08:10.925Z,5.47
2019-05-06T16:10:51.316Z,6.43
2019-05-06T16:13:04.424Z,5.50
2019-05-06T16:15:33.747Z,8.23
2019-05-06T16:18:02.431Z,9.87
2019-05-06T16:20:28.590Z,9.43
2019-05-06T16:23:07.704Z,9.03
2019-05-06T16:25:33.508Z,10.73
2019-05-06T16:27:59.295Z,9.10
2019-05-06T16:30:25.097Z,6.33
2019-05-06T16:32:52.704Z,7.67
2019-05-06T16:35:18.695Z,5.67
2019-05-06T16:37:44.480Z,5.00
2019-05-06T16:40:12.364Z,4.73
2019-05-06T16:42:38.074Z,6.47
2019-05-06T16:45:06.861Z,11.23
2019-05-06T16:47:36.320Z,8.17
2019-05-06T16:50:06.708Z,5.60
2019-05-06T16:52:33.341Z,5.03
2019-05-06T16:54:59.602Z,7.30
2019-05-06T16:57:25.398Z,7.57
2019-05-06T16:59:52.216Z,6.20
2019-05-06T17:02:19.996Z,7.43
2019-05-06T17:04:47.690Z,5.10
2019-05-06T17:07:13.517Z,3.90
2019-05-06T17:09:39.298Z,7.77
2019-05-06T17:12:05.098Z,6.43
2019-05-06T17:14:32.512Z,4.83
2019-05-06T17:16:58.401Z,5.83
2019-05-06T17:19:24.189Z,5.33
2019-05-06T17:21:52.284Z,8.67
2019-05-06T17:24:17.676Z,7.37
2019-05-06T17:26:43.481Z,9.33
2019-05-06T17:29:23.106Z,3.10
2019-05-06T17:31:51.161Z,5.27
2019-05-06T17:34:19.052Z,7.57
2019-05-06T17:36:44.981Z,7.73
2019-05-06T17:39:11.263Z,8.87
2019-05-06T17:41:46.024Z,7.20
2019-05-06T17:44:05.073Z,5.23
2019-05-06T17:46:33.358Z,6.10
2019-05-06T17:49:06.738Z,6.37
2019-05-06T17:51:37.278Z,8.90
2019-05-06T17:54:03.450Z,6.77
2019-05-06T17:56:29.246Z,6.47
2019-05-06T17:58:55.140Z,4.87
2019-05-06T18:01:23.377Z,6.77
2019-05-06T18:03:49.229Z,6.67
2019-05-06T18:06:15.017Z,4.50
2019-05-06T18:08:43.158Z,7.37
2019-05-06T18:11:08.516Z,6.73
2019-05-06T18:13:34.313Z,7.70
2019-05-06T18:16:00.101Z,6.03
2019-05-06T18:18:28.918Z,7.87
2019-05-06T18:20:53.594Z,5.67
2019-05-06T18:23:19.401Z,11.27
2019-05-06T18:25:45.189Z,5.00
2019-05-06T18:28:12.233Z,8.17
2019-05-06T18:30:38.181Z,5.17
2019-05-06T18:33:03.978Z,6.33
2019-05-06T18:35:29.861Z,8.73
2019-05-06T18:37:55.692Z,11.40
2019-05-06T18:40:23.244Z,7.87
2019-05-06T18:42:49.082Z,5.97
2019-05-06T18:45:14.985Z,5.40
2019-05-06T18:47:42.223Z,5.83
2019-05-06T18:50:08.584Z,8.33
2019-05-06T18:52:34.375Z,6.97
2019-05-06T18:55:00.173Z,6.20
2019-05-06T18:57:25.971Z,9.50
2019-05-06T18:59:53.306Z,6.53
2019-05-06T19:02:19.349Z,7.77
2019-05-06T19:04:47.047Z,6.93
2019-05-06T19:07:16.864Z,9.77
2019-05-06T19:09:42.587Z,4.57
2019-05-06T19:12:08.359Z,6.37
2019-05-06T19:14:34.165Z,6.73
2019-05-06T19:17:02.582Z,6.40
2019-05-06T19:19:27.656Z,6.97
2019-05-06T19:21:53.438Z,7.37
2019-05-06T19:24:19.233Z,7.17
2019-05-06T19:26:45.017Z,9.63
2019-05-06T19:29:12.251Z,6.83
2019-05-06T19:31:38.248Z,11.67
2019-05-06T19:34:04.132Z,8.03
2019-05-06T19:36:34.141Z,7.73
2019-05-06T19:38:57.633Z,6.90
2019-05-06T19:41:23.430Z,8.03
2019-05-06T19:43:49.224Z,6.13
2019-05-06T19:46:15.018Z,8.07
2019-05-06T19:48:43.045Z,7.07
2019-05-06T19:51:08.662Z,5.27
2019-05-06T19:53:34.449Z,11.90
2019-05-06T19:56:02.608Z,6.57
2019-05-06T19:58:27.934Z,9.37
2019-05-06T20:00:56.341Z,5.80
2019-05-06T20:03:23.121Z,8.73
2019-05-06T20:05:54.406Z,4.37
2019-05-06T20:08:27.905Z,8.10
2019-05-06T20:10:58.364Z,6.70
2019-05-06T20:13:24.155Z,5.77
2019-05-06T20:15:52.056Z,9.43
2019-05-06T20:18:17.651Z,6.43
2019-05-06T20:20:44.179Z,10.53
2019-05-06T20:23:12.318Z,7.47
2019-05-06T20:25:37.655Z,8.70
2019-05-06T20:28:04.533Z,7.87
2019-05-06T20:30:32.688Z,8.00
2019-05-06T20:32:59.249Z,7.73
2019-05-06T20:35:25.036Z,8.73
2019-05-06T20:37:53.243Z,5.93
2019-05-06T20:40:19.122Z,9.60
2019-05-06T20:42:45.414Z,7.37
2019-05-06T20:45:12.878Z,6.33
2019-05-06T20:47:38.726Z,8.60
2019-05-06T20:50:05.220Z,10.80
2019-05-06T20:52:33.049Z,6.83
2019-05-06T20:54:58.984Z,9.13
2019-05-06T20:57:24.778Z,6.10
2019-05-06T20:59:52.566Z,10.37
2019-05-06T21:02:18.309Z,7.53
2019-05-06T21:04:44.388Z,8.53
2019-05-06T21:07:12.222Z,10.80
2019-05-06T21:09:37.882Z,8.13
2019-05-06T21:12:03.677Z,11.70
2019-05-06T21:14:29.466Z,9.00
2019-05-06T21:16:55.257Z,11.23
2019-05-06T21:19:22.255Z,9.07
2019-05-06T21:21:49.156Z,12.10
2019-05-06T21:24:15.217Z,7.73
2019-05-06T21:26:42.898Z,9.10
2019-05-06T21:29:09.285Z,8.17
2019-05-06T21:31:35.064Z,12.10
2019-05-06T21:34:00.870Z,10.10
2019-05-06T21:36:26.810Z,12.47
2019-05-06T21:38:52.603Z,8.43
2019-05-06T21:41:18.381Z,9.43
2019-05-06T21:43:49.687Z,5.63
2019-05-06T21:46:13.109Z,7.70
2019-05-06T21:48:38.947Z,7.90
2019-05-06T21:51:04.732Z,8.30
2019-05-06T21:53:32.621Z,10.30
2019-05-06T21:55:58.591Z,11.47
2019-05-06T21:58:24.390Z,7.70
2019-05-06T22:00:55.430Z,10.33
2019-05-06T22:03:22.988Z,6.87
2019-05-06T22:05:49.029Z,9.00
2019-05-06T22:08:15.330Z,6.37
2019-05-06T22:10:42.167Z,10.40
2019-05-06T22:13:08.104Z,7.10
2019-05-06T22:15:33.902Z,8.60
2019-05-06T22:17:59.681Z,9.87
2019-05-06T22:20:25.486Z,6.73
2019-05-06T22:22:52.097Z,8.83
2019-05-06T22:25:17.977Z,5.23
2019-05-06T22:27:44.574Z,9.00
2019-05-06T22:30:10.761Z,10.30
2019-05-06T22:32:45.221Z,10.40
2019-05-06T22:35:12.418Z,8.80
2019-05-06T22:37:38.207Z,8.63
2019-05-06T22:40:05.395Z,7.47
2019-05-06T22:42:32.245Z,10.13
2019-05-06T22:44:58.183Z,10.40
2019-05-06T22:47:23.969Z,11.47
2019-05-06T22:49:49.783Z,14.07
2019-05-06T22:52:15.564Z,14.73
2019-05-06T22:54:43.325Z,10.00
2019-05-06T22:57:09.053Z,8.60
2019-05-06T22:59:34.844Z,5.57
2019-05-06T23:02:05.133Z,5.63
2019-05-06T23:04:32.848Z,7.70
2019-05-06T23:06:58.632Z,7.83
2019-05-06T23:09:25.037Z,8.63
2019-05-06T23:11:50.924Z,8.20
2019-05-06T23:14:27.886Z,9.97
2019-05-06T23:16:44.404Z,10.23
2019-05-06T23:19:10.191Z,11.40
2019-05-06T23:21:35.986Z,9.13
2019-05-06T23:24:02.200Z,4.87
2019-05-06T23:26:28.073Z,8.07
2019-05-06T23:28:53.861Z,8.63
2019-05-06T23:31:21.995Z,7.37
2019-05-06T23:33:47.844Z,8.67
2019-05-06T23:36:13.743Z,8.43
2019-05-06T23:39:16.528Z,5.93
2019-05-06T23:42:19.191Z,11.73
2019-05-06T23:45:22.859Z,8.63
2019-05-06T23:48:25.616Z,7.63
2019-05-06T23:51:28.589Z,6.93
2019-05-06T23:54:32.847Z,6.83
2019-05-06T23:56:58.517Z,7.63
2019-05-06T23:59:24.305Z,7.40
